Time;durP1;ratioP1;P1;durP2;ratioP2;P2;SDS_P1;SDS_P2;PMS_P1;PMS_P2;Temp;Humidity;BMP_temperature;BMP_pressure;BME280_temperature;BME280_humidity;BME280_pressure;Samples;Min_cycle;Max_cycle;Signal;HPM_P1;HPM_P2
2020/12/25 00:01:20;;;;;;;7.23;5.77;;;;;;;4.34;70.94;101304.94;5038696;28;20709;-73
2020/12/25 00:03:45;;;;;;;7.83;5.10;;;;;;;4.58;69.38;101308.50;5038501;28;20260;-72
2020/12/25 00:06:10;;;;;;;6.47;5.30;;;;;;;4.61;70.21;101308.63;5038985;28;20409;-73
2020/12/25 00:08:36;;;;;;;7.87;5.70;;;;;;;4.47;70.08;101305.47;5038230;28;20242;-73
2020/12/25 00:11:01;;;;;;;8.47;6.20;;;;;;;4.21;70.84;101312.94;5038283;28;20206;-74
2020/12/25 00:13:26;;;;;;;6.80;6.10;;;;;;;4.48;70.08;101309.78;5038867;28;20272;-74
2020/12/25 00:15:51;;;;;;;10.93;6.80;;;;;;;4.60;69.62;101315.50;5038406;28;20506;-73
2020/12/25 00:18:17;;;;;;;6.73;5.80;;;;;;;4.50;70.17;101316.78;5038310;28;20547;-74
2020/12/25 00:20:42;;;;;;;9.70;5.77;;;;;;;4.41;70.39;101320.69;5038534;28;20174;-73
2020/12/25 00:23:07;;;;;;;8.10;5.53;;;;;;;4.36;70.73;101323.94;5038230;28;20236;-74
2020/12/25 00:25:33;;;;;;;7.53;5.30;;;;;;;4.72;69.31;101313.44;5037999;28;20230;-72
2020/12/25 00:27:58;;;;;;;6.30;5.10;;;;;;;4.77;69.42;101316.22;5038515;28;20548;-72
2020/12/25 00:30:23;;;;;;;7.47;5.03;;;;;;;4.94;68.37;101322.13;5037862;28;20265;-72
2020/12/25 00:32:48;;;;;;;5.87;5.27;;;;;;;5.02;68.27;101323.31;5038064;28;20174;-73
2020/12/25 00:35:14;;;;;;;5.93;5.20;;;;;;;4.74;68.29;101331.59;5038323;28;20526;-73
2020/12/25 00:37:39;;;;;;;6.00;5.40;;;;;;;4.60;70.43;101338.75;5037963;28;20547;-73
2020/12/25 00:40:04;;;;;;;5.53;5.00;;;;;;;4.48;69.74;101338.19;5037662;28;20216;-74
2020/12/25 00:42:30;;;;;;;6.33;5.23;;;;;;;4.89;68.47;101341.69;5038280;28;20162;-74
2020/12/25 00:44:55;;;;;;;6.60;5.63;;;;;;;4.88;68.09;101339.91;5037740;28;20175;-73
2020/12/25 00:47:20;;;;;;;6.90;5.27;;;;;;;4.44;69.71;101341.44;5037635;28;20312;-73
2020/12/25 00:49:46;;;;;;;6.77;5.80;;;;;;;4.92;69.15;101343.53;5037849;28;20186;-73
2020/12/25 00:52:11;;;;;;;5.50;5.00;;;;;;;4.81;69.70;101343.06;5036846;28;20210;-73
2020/12/25 00:54:36;;;;;;;6.97;4.83;;;;;;;4.91;69.14;101350.38;5037550;28;20261;-73
2020/12/25 00:57:01;;;;;;;6.70;5.70;;;;;;;4.66;70.16;101339.00;5037972;28;20548;-73
2020/12/25 00:59:27;;;;;;;11.10;7.80;;;;;;;4.84;69.41;101349.28;5037476;28;20204;-73
2020/12/25 01:01:52;;;;;;;6.30;5.70;;;;;;;4.51;68.82;101339.22;5037463;28;20200;-73
2020/12/25 01:04:19;;;;;;;7.83;5.23;;;;;;;4.20;70.55;101348.16;5037845;28;20162;-73
2020/12/25 01:06:44;;;;;;;8.17;5.30;;;;;;;4.33;69.96;101344.47;5037564;28;20174;-73
2020/12/25 01:09:10;;;;;;;6.80;5.70;;;;;;;4.32;70.41;101346.97;5037269;28;20463;-73
2020/12/25 01:11:35;;;;;;;6.40;5.63;;;;;;;4.07;70.57;101347.56;5037656;28;20204;-73
2020/12/25 01:14:00;;;;;;;10.13;5.10;;;;;;;4.10;72.05;101352.84;5037356;28;20228;-72
2020/12/25 01:16:26;;;;;;;7.57;5.10;;;;;;;4.41;70.79;101364.56;5037359;28;20178;-73
2020/12/25 01:18:51;;;;;;;6.80;5.43;;;;;;;4.30;71.31;101369.25;5037537;28;20193;-73
2020/12/25 01:21:17;;;;;;;6.60;5.00;;;;;;;4.30;69.63;101375.31;5036579;28;20178;-73
2020/12/25 01:23:43;;;;;;;7.90;5.67;;;;;;;4.28;68.92;101371.75;5037035;28;20276;-73
2020/12/25 01:26:09;;;;;;;5.17;4.67;;;;;;;4.35;69.97;101386.69;5037560;28;20158;-72
2020/12/25 01:28:35;;;;;;;5.90;4.93;;;;;;;4.16;70.78;101397.00;5037092;28;20413;-73
2020/12/25 01:31:04;;;;;;;5.90;4.50;;;;;;;4.42;70.46;101399.91;5036900;28;20941;-73
2020/12/25 01:33:33;;;;;;;7.80;7.00;;;;;;;3.67;71.73;101403.31;5037536;28;20474;-73
2020/12/25 01:35:59;;;;;;;9.97;5.60;;;;;;;3.58;72.14;101396.00;5037093;28;20413;-73
2020/12/25 01:38:24;;;;;;;7.93;5.07;;;;;;;4.20;70.25;101394.63;5036994;28;20496;-73
2020/12/25 01:40:50;;;;;;;6.53;5.00;;;;;;;3.69;71.90;101397.44;5037271;28;20547;-73
2020/12/25 01:43:15;;;;;;;6.83;6.00;;;;;;;4.05;70.15;101406.81;5037069;28;20186;-73
2020/12/25 01:45:41;;;;;;;9.27;5.30;;;;;;;3.56;71.19;101401.88;5037026;28;20174;-72
2020/12/25 01:48:06;;;;;;;10.03;5.43;;;;;;;3.80;71.55;101402.19;5037347;28;20173;-73
2020/12/25 01:50:31;;;;;;;7.70;5.10;;;;;;;4.12;69.18;101402.84;5036729;28;20471;-73
2020/12/25 01:52:57;;;;;;;6.80;6.10;;;;;;;3.89;70.04;101407.78;5036856;28;20174;-73
2020/12/25 01:55:28;;;;;;;7.00;5.20;;;;;;;3.43;71.40;101415.88;5037250;28;20166;-73
2020/12/25 01:57:55;;;;;;;8.83;6.53;;;;;;;3.24;72.47;101412.38;5036090;28;20425;-73
2020/12/25 02:00:21;;;;;;;5.57;4.90;;;;;;;3.40;71.72;101414.03;5036600;28;20867;-73
2020/12/25 02:02:46;;;;;;;5.40;4.90;;;;;;;3.37;71.30;101417.34;5037212;28;20452;-72
2020/12/25 02:05:12;;;;;;;12.03;5.83;;;;;;;3.34;72.03;101414.63;5036735;28;20692;-73
2020/12/25 02:07:37;;;;;;;8.13;5.00;;;;;;;3.27;71.30;101415.09;5036787;28;20190;-73
2020/12/25 02:10:02;;;;;;;7.03;5.23;;;;;;;3.38;71.17;101413.06;5036931;28;20205;-72
2020/12/25 02:12:28;;;;;;;6.50;4.97;;;;;;;3.56;70.98;101417.34;5036759;28;20162;-74
2020/12/25 02:14:53;;;;;;;7.70;5.30;;;;;;;3.10;71.85;101424.56;5036708;28;20186;-73
2020/12/25 02:17:19;;;;;;;8.77;4.90;;;;;;;3.70;69.98;101421.50;5036300;28;20170;-73
2020/12/25 02:19:44;;;;;;;10.77;6.77;;;;;;;3.60;69.90;101425.34;5036581;28;20170;-73
2020/12/25 02:22:09;;;;;;;8.40;5.30;;;;;;;3.39;70.69;101429.44;5036569;28;20174;-73
2020/12/25 02:24:34;;;;;;;8.00;5.10;;;;;;;3.02;71.91;101433.59;5036454;28;20229;-72
2020/12/25 02:27:00;;;;;;;9.30;5.40;;;;;;;3.16;71.55;101437.75;5036664;28;20544;-72
2020/12/25 02:29:25;;;;;;;5.53;5.03;;;;;;;3.14;71.22;101438.47;5035805;28;20174;-72
2020/12/25 02:31:50;;;;;;;8.87;5.57;;;;;;;3.05;71.21;101445.75;5036906;28;20277;-73
2020/12/25 02:34:16;;;;;;;7.43;5.20;;;;;;;3.19;71.58;101443.09;5040218;28;20162;-72
2020/12/25 02:36:41;;;;;;;6.50;5.57;;;;;;;2.90;72.42;101449.28;5040652;28;20572;-72
2020/12/25 02:39:06;;;;;;;8.63;5.90;;;;;;;3.03;72.00;101443.97;5040206;28;20181;-73
2020/12/25 02:41:32;;;;;;;8.07;5.23;;;;;;;2.86;73.01;101443.09;5040150;28;20267;-73
2020/12/25 02:43:58;;;;;;;6.70;6.00;;;;;;;2.63;73.13;101451.31;5040481;28;20177;-73
2020/12/25 02:46:26;;;;;;;11.57;5.53;;;;;;;2.52;73.87;101451.59;5039269;28;20170;-73
2020/12/25 02:48:52;;;;;;;8.40;5.13;;;;;;;2.84;72.61;101454.13;5039001;28;20197;-73
2020/12/25 02:51:18;;;;;;;8.17;4.80;;;;;;;3.12;71.29;101450.41;5040225;28;20943;-73
2020/12/25 02:53:44;;;;;;;8.53;4.70;;;;;;;2.83;72.33;101445.50;5039969;28;20567;-73
2020/12/25 02:56:13;;;;;;;9.90;5.07;;;;;;;2.52;72.77;101466.19;5039848;28;20470;-72
2020/12/25 02:58:39;;;;;;;7.13;4.53;;;;;;;2.58;73.46;101466.47;5040071;28;20424;-72
2020/12/25 03:01:04;;;;;;;8.40;4.50;;;;;;;2.20;73.85;101470.44;5039665;28;20409;-72
2020/12/25 03:03:29;;;;;;;8.93;4.40;;;;;;;2.21;74.76;101477.34;5039835;28;20601;-73
2020/12/25 03:05:54;;;;;;;7.20;4.43;;;;;;;1.98;74.87;101484.66;5039884;28;20197;-72
2020/12/25 03:08:20;;;;;;;7.30;4.50;;;;;;;2.26;73.73;101480.16;5039847;28;20181;-73
2020/12/25 03:10:45;;;;;;;6.70;4.60;;;;;;;2.45;74.08;101475.25;5039269;28;20209;-72
2020/12/25 03:13:10;;;;;;;4.87;4.37;;;;;;;2.24;73.57;101487.81;5039873;28;20170;-73
2020/12/25 03:15:35;;;;;;;7.67;4.10;;;;;;;2.15;73.29;101487.28;5039362;28;20170;-72
2020/12/25 03:18:01;;;;;;;6.00;4.17;;;;;;;2.45;72.58;101479.50;5039341;28;20261;-72
2020/12/25 03:20:26;;;;;;;8.53;4.73;;;;;;;2.26;73.16;101483.66;5039496;28;20177;-73
2020/12/25 03:22:51;;;;;;;7.67;4.33;;;;;;;2.26;73.34;101483.66;5039293;28;20473;-72
2020/12/25 03:25:17;;;;;;;8.83;4.40;;;;;;;2.75;70.90;101479.38;5039192;28;20279;-72
2020/12/25 03:27:42;;;;;;;7.97;4.90;;;;;;;2.88;72.99;101476.66;5039640;28;20202;-73
2020/12/25 03:30:07;;;;;;;11.10;3.97;;;;;;;3.25;70.37;101482.81;5039052;28;20578;-73
2020/12/25 03:32:32;;;;;;;6.90;4.30;;;;;;;3.07;69.88;101478.50;5039257;28;20178;-72
2020/12/25 03:34:58;;;;;;;7.87;4.30;;;;;;;3.02;70.06;101480.84;5039348;28;20175;-71
2020/12/25 03:37:23;;;;;;;5.50;4.03;;;;;;;2.88;70.82;101484.38;5039125;28;20476;-73
2020/12/25 03:39:48;;;;;;;5.97;4.20;;;;;;;2.54;72.34;101490.28;5038942;28;20175;-73
2020/12/25 03:42:13;;;;;;;6.20;4.30;;;;;;;2.53;71.39;101492.00;5039247;28;20162;-73
2020/12/25 03:44:39;;;;;;;7.20;4.87;;;;;;;2.46;71.95;101507.00;5038282;28;20194;-73
2020/12/25 03:47:04;;;;;;;6.97;4.07;;;;;;;2.31;72.95;101501.91;5038812;28;20180;-72
2020/12/25 03:49:29;;;;;;;9.17;4.60;;;;;;;2.57;72.58;101499.88;5038942;28;20186;-72
2020/12/25 03:51:55;;;;;;;5.30;3.80;;;;;;;2.36;71.36;101501.34;5038733;28;20209;-72
2020/12/25 03:54:20;;;;;;;5.50;4.50;;;;;;;2.32;71.84;101499.41;5038752;28;20438;-72
2020/12/25 03:56:45;;;;;;;8.50;4.37;;;;;;;2.35;71.90;101506.41;5039105;28;20194;-73
2020/12/25 03:59:10;;;;;;;6.97;4.40;;;;;;;2.35;71.62;101511.56;5038445;28;20185;-73
2020/12/25 04:01:36;;;;;;;5.47;4.47;;;;;;;2.46;71.38;101509.56;5038565;28;20564;-72
2020/12/25 04:04:01;;;;;;;6.00;4.40;;;;;;;2.57;70.84;101510.16;5038984;28;20171;-72
2020/12/25 04:06:26;;;;;;;5.10;4.20;;;;;;;2.55;71.48;101497.22;5038444;28;20178;-73
2020/12/25 04:08:52;;;;;;;9.60;4.10;;;;;;;2.14;72.26;101508.69;5038327;28;20189;-72
2020/12/25 04:11:17;;;;;;;8.50;4.30;;;;;;;2.40;71.41;101509.25;5039196;28;20209;-73
2020/12/25 04:13:42;;;;;;;7.07;4.50;;;;;;;2.45;71.06;101516.44;5037693;28;20638;-73
2020/12/25 04:16:08;;;;;;;4.37;3.93;;;;;;;2.18;71.98;101513.22;5038319;28;20170;-73
2020/12/25 04:18:33;;;;;;;8.43;4.93;;;;;;;2.01;73.30;101505.41;5038672;28;20177;-72
2020/12/25 04:20:59;;;;;;;7.10;4.50;;;;;;;2.67;70.77;101507.31;5037951;28;20174;-72
2020/12/25 04:23:25;;;;;;;4.70;3.90;;;;;;;2.02;71.23;101519.16;5038005;28;20197;-72
2020/12/25 04:25:50;;;;;;;8.47;4.40;;;;;;;2.35;70.65;101519.28;5038505;28;20174;-73
2020/12/25 04:28:15;;;;;;;8.67;4.40;;;;;;;2.39;70.36;101520.34;5038155;28;20428;-72
2020/12/25 04:30:40;;;;;;;8.03;4.43;;;;;;;2.34;69.95;101523.56;5037873;28;20208;-72
2020/12/25 04:33:06;;;;;;;11.30;4.80;;;;;;;2.53;69.97;101522.00;5038309;28;20166;-72
2020/12/25 04:35:31;;;;;;;6.73;4.00;;;;;;;2.52;69.60;101522.78;5037842;28;20174;-72
2020/12/25 04:37:56;;;;;;;4.50;4.10;;;;;;;2.14;71.05;101524.13;5037921;28;20285;-73
2020/12/25 04:40:21;;;;;;;5.60;4.10;;;;;;;2.15;70.55;101528.44;5038108;28;20571;-73
2020/12/25 04:42:50;;;;;;;7.23;5.10;;;;;;;2.09;71.62;101525.53;5037890;28;20189;-72
2020/12/25 04:45:16;;;;;;;5.90;4.70;;;;;;;2.01;70.70;101528.53;5037783;28;20174;-73
2020/12/25 04:47:41;;;;;;;6.30;4.23;;;;;;;2.04;70.78;101534.69;5038316;28;20409;-72
2020/12/25 04:50:07;;;;;;;7.57;4.50;;;;;;;2.14;70.72;101531.84;5036594;28;20191;-73
2020/12/25 04:52:32;;;;;;;7.87;4.13;;;;;;;1.91;71.33;101533.97;5037719;28;20200;-74
2020/12/25 04:54:57;;;;;;;6.83;3.80;;;;;;;1.96;70.74;101539.38;5036956;28;20456;-74
2020/12/25 04:57:23;;;;;;;9.20;4.20;;;;;;;1.99;70.89;101544.72;5037201;28;20174;-71
2020/12/25 04:59:48;;;;;;;5.77;3.80;;;;;;;2.32;69.62;101540.56;5037535;28;20170;-73
2020/12/25 05:02:14;;;;;;;8.10;4.50;;;;;;;2.30;70.01;101537.03;5037872;28;20174;-72
2020/12/25 05:04:39;;;;;;;7.77;4.00;;;;;;;2.23;69.30;101539.19;5037439;28;20174;-72
2020/12/25 05:07:06;;;;;;;6.70;3.93;;;;;;;1.80;70.87;101548.78;5037328;28;20249;-72
2020/12/25 05:09:31;;;;;;;5.20;3.90;;;;;;;2.09;69.85;101546.13;5037660;28;20181;-72
2020/12/25 05:11:57;;;;;;;10.40;4.20;;;;;;;2.09;70.20;101551.25;5037280;28;20468;-72
2020/12/25 05:14:30;;;;;;;9.63;4.20;;;;;;;1.87;70.82;101543.97;5037362;28;20251;-73
2020/12/25 05:16:59;;;;;;;6.33;4.03;;;;;;;2.07;70.36;101547.72;5037705;28;20405;-72
2020/12/25 05:19:31;;;;;;;5.30;3.87;;;;;;;2.16;69.49;101554.25;5037004;28;20417;-72
2020/12/25 05:21:58;;;;;;;4.93;4.10;;;;;;;2.14;69.79;101557.56;5037186;28;20502;-72
2020/12/25 05:24:24;;;;;;;6.73;4.07;;;;;;;2.21;69.03;101548.50;5036895;28;20453;-72
2020/12/25 05:26:53;;;;;;;10.33;4.07;;;;;;;2.30;68.79;101544.78;5036492;28;20413;-72
2020/12/25 05:29:28;;;;;;;5.73;3.70;;;;;;;2.21;68.69;101557.09;5037264;28;20460;-72
2020/12/25 05:31:54;;;;;;;7.80;4.03;;;;;;;2.04;69.24;101552.69;5036883;28;20455;-72
2020/12/25 05:34:21;;;;;;;5.47;4.10;;;;;;;2.17;70.22;101552.59;5037119;28;20424;-72
2020/12/25 05:36:55;;;;;;;4.93;3.70;;;;;;;2.01;69.31;101555.97;5037147;28;20420;-72
2020/12/25 05:39:27;;;;;;;9.10;4.20;;;;;;;1.88;69.89;101556.03;5036892;28;20420;-72
2020/12/25 05:42:07;;;;;;;5.80;3.60;;;;;;;2.11;69.36;101562.50;5037082;28;20510;-71
2020/12/25 05:44:39;;;;;;;7.80;4.13;;;;;;;2.07;69.69;101566.63;5036982;28;20452;-71
2020/12/25 05:47:07;;;;;;;6.53;3.80;;;;;;;1.81;69.29;101570.22;5036994;28;20420;-73
2020/12/25 05:49:32;;;;;;;5.47;4.03;;;;;;;1.91;69.39;101571.66;5036680;28;20632;-72
2020/12/25 05:51:57;;;;;;;8.13;3.83;;;;;;;2.15;69.30;101572.19;5037112;28;20457;-73
2020/12/25 05:54:27;;;;;;;6.03;3.70;;;;;;;1.83;69.63;101579.81;5036932;28;20424;-73
2020/12/25 05:56:56;;;;;;;7.73;3.70;;;;;;;2.25;68.10;101578.75;5036791;28;20560;-73
2020/12/25 05:59:30;;;;;;;6.20;3.60;;;;;;;2.28;67.57;101577.22;5037533;28;20845;-72
2020/12/25 06:02:04;;;;;;;7.70;3.57;;;;;;;1.85;69.45;101579.91;5036884;28;20458;-72
2020/12/25 06:04:31;;;;;;;5.03;3.43;;;;;;;1.97;69.16;101588.31;5036786;28;20424;-72
2020/12/25 06:06:57;;;;;;;6.77;3.97;;;;;;;2.00;70.02;101605.63;5037483;28;20413;-72
2020/12/25 06:09:32;;;;;;;11.03;3.60;;;;;;;2.19;68.71;101592.13;5039948;28;20413;-72
2020/12/25 06:11:58;;;;;;;8.43;4.00;;;;;;;2.25;69.17;101599.34;5040740;28;20606;-72
2020/12/25 06:14:24;;;;;;;6.20;3.83;;;;;;;2.10;68.66;101600.22;5040729;28;20491;-72
2020/12/25 06:17:01;;;;;;;6.30;3.90;;;;;;;2.21;67.52;101599.97;5040776;28;20216;-72
2020/12/25 06:19:43;;;;;;;6.10;3.87;;;;;;;2.18;68.62;101613.53;5039697;28;20276;-72
2020/12/25 06:22:22;;;;;;;4.30;3.03;;;;;;;1.87;70.45;101605.69;5039795;28;20416;-72
2020/12/25 06:24:47;;;;;;;5.77;3.70;;;;;;;1.97;68.51;101611.47;5040340;28;20500;-71
2020/12/25 06:27:13;;;;;;;7.30;3.50;;;;;;;1.95;68.80;101613.06;5039608;28;20440;-73
2020/12/25 06:29:41;;;;;;;7.07;3.13;;;;;;;1.98;68.09;101620.97;5040292;28;20416;-73
2020/12/25 06:32:07;;;;;;;4.43;3.13;;;;;;;1.81;69.16;101622.56;5040190;28;20461;-72
2020/12/25 06:34:42;;;;;;;6.50;3.80;;;;;;;1.86;67.91;101625.38;5039926;28;20428;-73
2020/12/25 06:37:09;;;;;;;10.23;3.93;;;;;;;1.90;68.27;101624.78;5040297;28;20170;-72
2020/12/25 06:39:34;;;;;;;5.10;3.17;;;;;;;2.07;68.51;101636.06;5039387;28;20409;-72
2020/12/25 06:41:59;;;;;;;6.17;3.60;;;;;;;2.01;68.53;101634.00;5040104;28;20678;-73
2020/12/25 06:44:29;;;;;;;10.00;3.77;;;;;;;2.12;68.67;101634.63;5040153;28;20162;-72
2020/12/25 06:47:00;;;;;;;7.80;3.93;;;;;;;1.72;69.09;101636.53;5040366;28;20254;-72
2020/12/25 06:49:33;;;;;;;3.80;2.93;;;;;;;1.73;69.13;101640.88;5039859;28;20494;-72
2020/12/25 06:51:58;;;;;;;4.80;3.47;;;;;;;2.04;67.78;101642.69;5039879;28;20483;-73
2020/12/25 06:54:26;;;;;;;7.37;3.77;;;;;;;2.37;66.57;101643.78;5039899;28;20833;-73
2020/12/25 06:56:52;;;;;;;5.10;3.10;;;;;;;1.82;68.21;101650.00;5039837;28;20208;-73
2020/12/25 06:59:19;;;;;;;8.40;3.90;;;;;;;1.80;67.77;101640.44;5040120;28;20409;-73
2020/12/25 07:01:45;;;;;;;3.63;2.87;;;;;;;1.74;68.62;101643.53;5039718;28;20412;-71
2020/12/25 07:04:27;;;;;;;4.63;3.20;;;;;;;1.83;68.25;101645.78;5039663;28;20421;-72
2020/12/25 07:07:01;;;;;;;4.70;3.47;;;;;;;1.98;67.41;101641.53;5039737;28;20437;-72
2020/12/25 07:09:40;;;;;;;4.27;3.37;;;;;;;1.94;67.96;101654.13;5039548;28;20473;-72
2020/12/25 07:12:13;;;;;;;4.33;3.10;;;;;;;1.94;68.68;101651.56;5039715;28;20838;-72
2020/12/25 07:14:39;;;;;;;6.37;3.63;;;;;;;2.23;67.17;101655.81;5038754;28;20811;-73
2020/12/25 07:17:04;;;;;;;7.10;3.67;;;;;;;2.04;67.99;101660.69;5039567;28;20423;-73
2020/12/25 07:19:29;;;;;;;5.93;3.47;;;;;;;2.02;67.42;101666.63;5038306;28;20550;-72
2020/12/25 07:21:55;;;;;;;7.53;3.73;;;;;;;1.39;68.65;101669.66;5039811;28;20208;-73
2020/12/25 07:24:20;;;;;;;4.80;3.60;;;;;;;1.98;67.12;101676.66;5039147;28;20214;-72
2020/12/25 07:26:48;;;;;;;7.67;3.50;;;;;;;2.08;67.11;101675.53;5039378;28;20166;-72
2020/12/25 07:29:14;;;;;;;7.13;3.63;;;;;;;2.11;67.14;101674.03;5039368;28;20190;-72
2020/12/25 07:31:50;;;;;;;12.20;3.30;;;;;;;1.86;67.11;101687.09;5039099;28;20466;-72
2020/12/25 07:34:23;;;;;;;3.90;3.30;;;;;;;1.76;67.88;101695.03;5038994;28;20529;-72
2020/12/25 07:36:49;;;;;;;9.37;3.63;;;;;;;1.90;67.37;101688.19;5038989;28;20846;-72
2020/12/25 07:39:15;;;;;;;3.60;2.90;;;;;;;1.98;67.03;101695.53;5039029;28;20417;-73
2020/12/25 07:41:41;;;;;;;8.60;2.73;;;;;;;1.98;66.49;101703.25;5039458;28;20416;-71
2020/12/25 07:44:06;;;;;;;5.40;3.20;;;;;;;1.88;67.05;101706.09;5039065;28;20677;-72
2020/12/25 07:46:32;;;;;;;7.40;3.30;;;;;;;2.10;66.76;101715.97;5038974;28;20221;-73
2020/12/25 07:48:59;;;;;;;4.60;3.43;;;;;;;2.25;66.03;101718.56;5039026;28;20244;-72
2020/12/25 07:51:24;;;;;;;4.93;3.40;;;;;;;2.13;66.50;101717.84;5038734;28;20465;-72
2020/12/25 07:53:57;;;;;;;6.87;3.23;;;;;;;2.33;65.74;101717.31;5038891;28;20730;-72
2020/12/25 07:56:24;;;;;;;6.10;3.33;;;;;;;2.35;65.78;101720.91;5039123;28;20186;-72
2020/12/25 07:58:50;;;;;;;3.60;3.10;;;;;;;2.47;64.80;101724.97;5038567;28;20420;-71
2020/12/25 08:01:18;;;;;;;6.10;3.27;;;;;;;2.33;65.05;101729.31;5038604;28;20474;-72
2020/12/25 08:03:44;;;;;;;5.77;3.80;;;;;;;2.44;65.37;101728.25;5038815;28;20413;-72
2020/12/25 08:06:14;;;;;;;9.37;3.43;;;;;;;2.46;65.70;101729.25;5038431;28;20463;-72
2020/12/25 08:08:44;;;;;;;4.83;2.93;;;;;;;2.83;64.30;101726.22;5038459;28;20193;-72
2020/12/25 08:11:09;;;;;;;4.60;3.53;;;;;;;2.68;63.92;101727.91;5038983;28;20449;-72
2020/12/25 08:13:36;;;;;;;7.53;3.73;;;;;;;2.62;64.16;101731.00;5037756;28;20471;-73
2020/12/25 08:16:01;;;;;;;6.17;3.03;;;;;;;2.45;64.77;101732.63;5037671;28;20478;-72
2020/12/25 08:18:27;;;;;;;6.90;3.47;;;;;;;2.35;65.64;101744.06;5038558;28;20417;-73
2020/12/25 08:20:54;;;;;;;5.20;3.33;;;;;;;2.64;64.33;101738.84;5038274;28;20582;-73
2020/12/25 08:23:19;;;;;;;5.90;4.10;;;;;;;2.51;64.48;101739.78;5038213;28;20834;-71
2020/12/25 08:25:51;;;;;;;3.73;3.30;;;;;;;2.14;65.48;101745.34;5038528;28;20405;-73
2020/12/25 08:28:16;;;;;;;4.33;3.33;;;;;;;2.50;65.18;101748.31;5037368;28;20278;-73
2020/12/25 08:30:41;;;;;;;4.43;3.00;;;;;;;2.47;64.69;101745.56;5037967;28;20916;-72
2020/12/25 08:33:06;;;;;;;5.30;3.50;;;;;;;2.81;64.71;101738.09;5038430;28;20487;-72
2020/12/25 08:35:32;;;;;;;3.63;3.33;;;;;;;3.03;63.62;101745.38;5037251;28;20189;-73
2020/12/25 08:38:03;;;;;;;9.97;4.73;;;;;;;3.13;64.27;101746.78;5038182;28;20170;-72
2020/12/25 08:40:33;;;;;;;4.20;3.47;;;;;;;4.27;60.81;101746.81;5038219;28;20194;-72
2020/12/25 08:43:06;;;;;;;5.60;3.30;;;;;;;4.97;56.89;101740.84;5037999;28;20415;-72
2020/12/25 08:45:31;;;;;;;3.00;2.80;;;;;;;5.94;53.42;101740.97;5037791;28;20466;-73
2020/12/25 08:48:12;;;;;;;3.80;3.50;;;;;;;6.60;51.69;101746.47;5037852;28;20417;-72
2020/12/25 08:50:39;;;;;;;5.60;3.60;;;;;;;6.90;50.33;101754.66;5037452;28;20210;-73
2020/12/25 08:53:21;;;;;;;6.20;3.57;;;;;;;7.41;48.81;101753.19;5037977;28;20684;-73
2020/12/25 08:55:49;;;;;;;5.63;3.70;;;;;;;6.93;49.73;101753.88;5037679;28;20437;-73
2020/12/25 08:58:18;;;;;;;3.63;2.90;;;;;;;6.71;49.69;101758.19;5037567;28;20496;-73
2020/12/25 09:00:55;;;;;;;6.30;4.70;;;;;;;7.18;48.38;101762.66;5037373;28;20462;-73
2020/12/25 09:03:20;;;;;;;3.60;2.80;;;;;;;7.57;48.06;101765.03;5037377;28;20459;-74
2020/12/25 09:05:45;;;;;;;3.93;3.10;;;;;;;8.01;46.41;101752.84;5037462;28;20492;-73
2020/12/25 09:08:10;;;;;;;5.33;3.37;;;;;;;7.98;45.98;101751.84;5037929;28;20170;-74
2020/12/25 09:10:36;;;;;;;6.33;3.20;;;;;;;7.96;45.33;101749.19;5037150;28;20281;-73
2020/12/25 09:13:01;;;;;;;6.60;4.13;;;;;;;7.53;46.90;101750.19;5037373;28;20178;-74
2020/12/25 09:15:26;;;;;;;3.30;3.00;;;;;;;8.36;46.01;101748.03;5037714;28;20163;-73
2020/12/25 09:17:51;;;;;;;5.43;3.93;;;;;;;9.23;43.74;101743.97;5037297;28;20193;-73
2020/12/25 09:20:17;;;;;;;6.67;3.30;;;;;;;8.98;43.20;101750.09;5037122;28;20171;-74
2020/12/25 09:22:42;;;;;;;6.40;3.40;;;;;;;9.03;43.02;101758.94;5037537;28;20540;-73
2020/12/25 09:25:07;;;;;;;4.60;3.30;;;;;;;8.70;43.60;101758.72;5036882;28;20272;-74
2020/12/25 09:27:33;;;;;;;6.00;3.63;;;;;;;8.71;43.42;101757.88;5037166;28;20221;-74
2020/12/25 09:29:58;;;;;;;4.60;3.10;;;;;;;9.22;42.08;101768.22;5037361;28;20204;-74
2020/12/25 09:32:23;;;;;;;4.47;3.23;;;;;;;9.69;41.25;101761.84;5036905;28;20202;-74
2020/12/25 09:34:48;;;;;;;5.50;3.37;;;;;;;9.24;42.86;101770.88;5036959;28;20181;-74
2020/12/25 09:37:14;;;;;;;6.27;3.30;;;;;;;9.32;42.52;101771.13;5037003;28;20170;-74
2020/12/25 09:39:39;;;;;;;3.90;3.40;;;;;;;8.24;43.99;101782.25;5036635;28;20486;-73
2020/12/25 09:42:04;;;;;;;4.37;3.53;;;;;;;8.32;44.04;101784.22;5036315;28;20178;-73
2020/12/25 09:44:30;;;;;;;10.30;3.70;;;;;;;8.55;43.43;101780.78;5037266;28;20192;-74
2020/12/25 09:46:55;;;;;;;5.87;3.60;;;;;;;8.92;43.18;101783.72;5036954;28;20407;-74
2020/12/25 09:49:20;;;;;;;6.20;3.40;;;;;;;9.49;42.21;101776.88;5036875;28;20488;-75
2020/12/25 09:51:46;;;;;;;4.27;3.17;;;;;;;8.27;44.59;101779.75;5037313;28;20190;-74
2020/12/25 09:54:11;;;;;;;4.70;3.47;;;;;;;8.06;44.95;101771.19;5036755;28;20181;-74
2020/12/25 09:56:36;;;;;;;3.20;2.90;;;;;;;8.33;43.94;101776.47;5036812;28;20178;-74
2020/12/25 09:59:01;;;;;;;7.33;3.60;;;;;;;8.06;44.53;101776.38;5037064;28;20586;-73
2020/12/25 10:01:27;;;;;;;8.80;3.87;;;;;;;8.23;44.88;101775.28;5036783;28;20198;-73
2020/12/25 10:03:52;;;;;;;4.27;3.30;;;;;;;8.80;42.29;101772.94;5036841;28;20174;-74
2020/12/25 10:06:19;;;;;;;16.83;12.03;;;;;;;8.70;43.76;101777.81;5037107;28;20181;-75
2020/12/25 10:08:45;;;;;;;8.17;3.73;;;;;;;8.57;43.09;101780.81;5036552;28;20547;-73
2020/12/25 10:11:10;;;;;;;5.00;3.57;;;;;;;7.90;45.75;101791.41;5036379;28;20561;-73
2020/12/25 10:13:35;;;;;;;6.00;4.20;;;;;;;8.67;43.20;101785.47;5036908;28;20170;-73
2020/12/25 10:16:00;;;;;;;10.57;6.93;;;;;;;8.39;43.89;101792.31;5036542;28;20174;-74
2020/12/25 10:18:26;;;;;;;5.83;4.00;;;;;;;8.11;44.97;101793.00;5036384;28;20230;-74
2020/12/25 10:20:51;;;;;;;5.00;3.97;;;;;;;8.16;44.70;101796.66;5036664;28;20174;-74
2020/12/25 10:23:16;;;;;;;3.90;3.50;;;;;;;8.22;44.14;101788.22;5036364;28;20557;-74
2020/12/25 10:25:42;;;;;;;4.37;3.57;;;;;;;8.88;43.42;101785.34;5036542;28;20522;-75
2020/12/25 10:28:07;;;;;;;8.30;3.70;;;;;;;8.28;44.42;101788.44;5036821;28;20174;-75
2020/12/25 10:30:33;;;;;;;5.10;3.60;;;;;;;8.89;42.78;101789.72;5036242;28;20170;-74
2020/12/25 10:32:58;;;;;;;5.03;3.43;;;;;;;8.55;43.17;101790.25;5036365;28;20538;-75
2020/12/25 10:35:23;;;;;;;4.43;3.57;;;;;;;8.47;43.72;101800.41;5036722;28;20163;-74
2020/12/25 10:37:48;;;;;;;5.20;3.60;;;;;;;8.46;43.63;101805.53;5036324;28;20183;-74
2020/12/25 10:40:14;;;;;;;5.23;4.30;;;;;;;8.86;42.51;101794.81;5036420;28;20253;-74
2020/12/25 10:42:40;;;;;;;5.03;3.47;;;;;;;9.12;42.15;101797.41;5036757;28;20508;-74
2020/12/25 10:45:05;;;;;;;10.50;4.93;;;;;;;9.38;42.11;101800.81;5036240;28;20171;-74
2020/12/25 10:47:30;;;;;;;4.27;3.87;;;;;;;8.92;42.94;101804.53;5036252;28;20254;-75
2020/12/25 10:49:56;;;;;;;3.80;3.50;;;;;;;8.79;43.06;101792.81;5036465;28;20198;-75
2020/12/25 10:52:21;;;;;;;3.90;3.50;;;;;;;8.67;42.79;101788.09;5036304;28;20447;-74
2020/12/25 10:54:46;;;;;;;5.10;3.53;;;;;;;9.58;41.54;101790.16;5039836;28;20282;-75
2020/12/25 10:57:12;;;;;;;5.97;3.27;;;;;;;8.35;43.68;101794.72;5040295;28;20170;-74
2020/12/25 10:59:37;;;;;;;4.77;3.40;;;;;;;8.57;43.60;101799.00;5039748;28;20443;-75
2020/12/25 11:02:02;;;;;;;7.07;4.33;;;;;;;8.21;43.08;101796.81;5039708;28;20228;-74
2020/12/25 11:04:27;;;;;;;4.30;3.40;;;;;;;9.05;42.65;101788.50;5040138;28;20177;-75
2020/12/25 11:06:53;;;;;;;4.30;3.30;;;;;;;9.24;41.46;101786.47;5039691;28;20170;-75
2020/12/25 11:09:18;;;;;;;5.30;3.70;;;;;;;9.05;41.94;101779.81;5039315;28;20558;-74
2020/12/25 11:11:43;;;;;;;4.93;3.67;;;;;;;8.96;42.26;101790.81;5038976;28;20205;-74
2020/12/25 11:14:09;;;;;;;4.13;3.43;;;;;;;8.91;42.34;101787.16;5039786;28;20539;-74
2020/12/25 11:16:36;;;;;;;4.13;3.40;;;;;;;9.06;41.92;101785.06;5039381;28;20540;-74
2020/12/25 11:19:04;;;;;;;4.37;3.30;;;;;;;8.85;42.49;101784.34;5039760;28;20205;-74
2020/12/25 11:21:30;;;;;;;5.00;3.20;;;;;;;9.27;42.16;101784.00;5038656;28;20421;-75
2020/12/25 11:23:57;;;;;;;4.70;3.37;;;;;;;8.37;43.01;101796.53;5039232;28;20704;-74
2020/12/25 11:26:34;;;;;;;4.80;3.20;;;;;;;9.00;41.81;101777.06;5038906;28;20475;-73
2020/12/25 11:29:01;;;;;;;3.80;3.40;;;;;;;9.41;41.77;101784.44;5039235;28;20777;-74